sensor_id;sensor_type;location;lat;lon;timestamp;temperature;humidity
45137;DHT22;30894;51.740;19.498;2024-03-06T00:00:51;-2.50;99.90
45137;DHT22;30894;51.740;19.498;2024-03-06T00:03:38;-2.30;99.90
45137;DHT22;30894;51.740;19.498;2024-03-06T00:06:12;-2.40;99.90
45137;DHT22;30894;51.740;19.498;2024-03-06T00:08:39;-2.30;99.90
45137;DHT22;30894;51.740;19.498;2024-03-06T00:11:11;-2.30;99.90
45137;DHT22;30894;51.740;19.498;2024-03-06T00:13:37;-2.30;99.90
45137;DHT22;30894;51.740;19.498;2024-03-06T00:16:07;-2.20;99.90
45137;DHT22;30894;51.740;19.498;2024-03-06T00:18:36;-2.20;99.90
45137;DHT22;30894;51.740;19.498;2024-03-06T00:21:03;-2.20;99.90
45137;DHT22;30894;51.740;19.498;2024-03-06T00:23:30;-2.20;99.90
45137;DHT22;30894;51.740;19.498;2024-03-06T00:25:57;-2.20;99.90
45137;DHT22;30894;51.740;19.498;2024-03-06T00:28:23;-2.20;99.90
45137;DHT22;30894;51.740;19.498;2024-03-06T00:30:52;-2.30;99.90
45137;DHT22;30894;51.740;19.498;2024-03-06T00:33:20;-2.20;99.90
45137;DHT22;30894;51.740;19.498;2024-03-06T00:35:47;-2.10;99.90
45137;DHT22;30894;51.740;19.498;2024-03-06T00:38:16;-2.00;99.90
45137;DHT22;30894;51.740;19.498;2024-03-06T00:40:42;-1.90;99.90
45137;DHT22;30894;51.740;19.498;2024-03-06T00:43:08;-1.60;99.90
45137;DHT22;30894;51.740;19.498;2024-03-06T00:45:47;-1.50;99.90
45137;DHT22;30894;51.740;19.498;2024-03-06T00:48:16;-1.40;99.90
45137;DHT22;30894;51.740;19.498;2024-03-06T00:50:46;-1.30;99.90
45137;DHT22;30894;51.740;19.498;2024-03-06T00:53:16;-1.10;99.90
45137;DHT22;30894;51.740;19.498;2024-03-06T00:55:42;-1.10;99.90
45137;DHT22;30894;51.740;19.498;2024-03-06T00:58:14;-1.00;99.90
45137;DHT22;30894;51.740;19.498;2024-03-06T01:00:40;-0.90;99.90
45137;DHT22;30894;51.740;19.498;2024-03-06T01:03:11;-0.90;99.90
45137;DHT22;30894;51.740;19.498;2024-03-06T01:05:40;-0.70;99.90
45137;DHT22;30894;51.740;19.498;2024-03-06T01:08:16;-0.70;99.90
45137;DHT22;30894;51.740;19.498;2024-03-06T01:10:43;-0.60;99.90
45137;DHT22;30894;51.740;19.498;2024-03-06T01:13:33;-0.60;99.90
45137;DHT22;30894;51.740;19.498;2024-03-06T01:16:03;-0.60;99.90
45137;DHT22;30894;51.740;19.498;2024-03-06T01:18:30;-0.50;99.90
45137;DHT22;30894;51.740;19.498;2024-03-06T01:20:58;-0.40;99.90
45137;DHT22;30894;51.740;19.498;2024-03-06T01:23:33;-0.40;99.90
45137;DHT22;30894;51.740;19.498;2024-03-06T01:26:02;-0.30;99.90
45137;DHT22;30894;51.740;19.498;2024-03-06T01:28:40;-0.30;99.90
45137;DHT22;30894;51.740;19.498;2024-03-06T01:31:12;-0.20;99.90
45137;DHT22;30894;51.740;19.498;2024-03-06T01:33:40;-0.20;99.90
45137;DHT22;30894;51.740;19.498;2024-03-06T01:36:06;-0.10;99.90
45137;DHT22;30894;51.740;19.498;2024-03-06T01:38:37;-0.10;99.90
45137;DHT22;30894;51.740;19.498;2024-03-06T01:41:13;0.00;99.90
45137;DHT22;30894;51.740;19.498;2024-03-06T01:43:53;0.00;99.90
45137;DHT22;30894;51.740;19.498;2024-03-06T01:46:21;0.00;99.90
45137;DHT22;30894;51.740;19.498;2024-03-06T01:48:55;0.00;99.90
45137;DHT22;30894;51.740;19.498;2024-03-06T01:51:26;0.00;99.90
45137;DHT22;30894;51.740;19.498;2024-03-06T01:53:58;0.00;99.90
45137;DHT22;30894;51.740;19.498;2024-03-06T01:56:39;0.00;99.90
45137;DHT22;30894;51.740;19.498;2024-03-06T01:59:20;0.00;99.90
45137;DHT22;30894;51.740;19.498;2024-03-06T02:01:52;0.20;99.90
45137;DHT22;30894;51.740;19.498;2024-03-06T02:04:22;0.10;99.90
45137;DHT22;30894;51.740;19.498;2024-03-06T02:06:53;0.10;99.90
45137;DHT22;30894;51.740;19.498;2024-03-06T02:09:21;0.10;99.90
45137;DHT22;30894;51.740;19.498;2024-03-06T02:11:50;0.10;99.90
45137;DHT22;30894;51.740;19.498;2024-03-06T02:14:18;0.10;99.90
45137;DHT22;30894;51.740;19.498;2024-03-06T02:16:44;0.10;99.90
45137;DHT22;30894;51.740;19.498;2024-03-06T02:19:11;0.10;99.90
45137;DHT22;30894;51.740;19.498;2024-03-06T02:21:39;0.20;99.90
45137;DHT22;30894;51.740;19.498;2024-03-06T02:24:08;0.20;99.90
45137;DHT22;30894;51.740;19.498;2024-03-06T02:26:39;0.30;99.90
45137;DHT22;30894;51.740;19.498;2024-03-06T02:29:07;0.40;99.90
45137;DHT22;30894;51.740;19.498;2024-03-06T02:31:35;0.30;99.90
45137;DHT22;30894;51.740;19.498;2024-03-06T02:34:05;0.40;99.90
45137;DHT22;30894;51.740;19.498;2024-03-06T02:36:33;0.40;99.90
45137;DHT22;30894;51.740;19.498;2024-03-06T02:39:02;0.50;99.90
45137;DHT22;30894;51.740;19.498;2024-03-06T02:41:36;0.50;99.90
45137;DHT22;30894;51.740;19.498;2024-03-06T02:44:04;0.50;99.90
45137;DHT22;30894;51.740;19.498;2024-03-06T02:46:34;0.50;99.90
45137;DHT22;30894;51.740;19.498;2024-03-06T02:49:00;0.60;99.90
45137;DHT22;30894;51.740;19.498;2024-03-06T02:51:34;0.60;99.90
45137;DHT22;30894;51.740;19.498;2024-03-06T02:54:03;0.60;99.90
45137;DHT22;30894;51.740;19.498;2024-03-06T02:56:30;0.60;99.90
45137;DHT22;30894;51.740;19.498;2024-03-06T02:58:56;0.70;99.90
45137;DHT22;30894;51.740;19.498;2024-03-06T03:01:29;0.70;99.90
45137;DHT22;30894;51.740;19.498;2024-03-06T03:04:01;0.70;99.90
45137;DHT22;30894;51.740;19.498;2024-03-06T03:06:29;0.80;99.90
45137;DHT22;30894;51.740;19.498;2024-03-06T03:08:56;0.80;99.90
45137;DHT22;30894;51.740;19.498;2024-03-06T03:11:22;0.80;99.90
45137;DHT22;30894;51.740;19.498;2024-03-06T03:13:48;1.00;99.90
45137;DHT22;30894;51.740;19.498;2024-03-06T03:16:19;0.90;99.90
45137;DHT22;30894;51.740;19.498;2024-03-06T03:18:46;0.90;99.90
45137;DHT22;30894;51.740;19.498;2024-03-06T03:21:15;1.00;99.90
45137;DHT22;30894;51.740;19.498;2024-03-06T03:23:42;1.00;99.90
45137;DHT22;30894;51.740;19.498;2024-03-06T03:26:10;1.00;99.90
45137;DHT22;30894;51.740;19.498;2024-03-06T03:28:38;1.00;99.90
45137;DHT22;30894;51.740;19.498;2024-03-06T03:31:07;1.00;99.90
45137;DHT22;30894;51.740;19.498;2024-03-06T03:33:38;1.10;99.90
45137;DHT22;30894;51.740;19.498;2024-03-06T03:36:06;1.10;99.90
45137;DHT22;30894;51.740;19.498;2024-03-06T03:38:35;1.20;99.90
45137;DHT22;30894;51.740;19.498;2024-03-06T03:41:10;1.20;99.90
45137;DHT22;30894;51.740;19.498;2024-03-06T03:43:42;1.20;99.90
45137;DHT22;30894;51.740;19.498;2024-03-06T03:46:08;1.30;99.90
45137;DHT22;30894;51.740;19.498;2024-03-06T03:48:36;1.30;99.90
45137;DHT22;30894;51.740;19.498;2024-03-06T03:51:03;1.30;99.90
45137;DHT22;30894;51.740;19.498;2024-03-06T03:53:31;1.40;99.90
45137;DHT22;30894;51.740;19.498;2024-03-06T03:55:59;1.40;99.90
45137;DHT22;30894;51.740;19.498;2024-03-06T03:58:25;1.50;99.90
45137;DHT22;30894;51.740;19.498;2024-03-06T04:00:53;1.50;99.90
45137;DHT22;30894;51.740;19.498;2024-03-06T04:03:22;1.50;99.90
45137;DHT22;30894;51.740;19.498;2024-03-06T04:05:48;1.60;99.90
45137;DHT22;30894;51.740;19.498;2024-03-06T04:08:16;1.60;99.90
45137;DHT22;30894;51.740;19.498;2024-03-06T04:10:43;1.60;99.90
45137;DHT22;30894;51.740;19.498;2024-03-06T04:13:15;1.70;99.90
45137;DHT22;30894;51.740;19.498;2024-03-06T04:15:42;1.70;99.90
45137;DHT22;30894;51.740;19.498;2024-03-06T04:18:26;1.70;99.90
45137;DHT22;30894;51.740;19.498;2024-03-06T04:20:52;1.70;99.90
45137;DHT22;30894;51.740;19.498;2024-03-06T04:23:21;1.70;99.90
45137;DHT22;30894;51.740;19.498;2024-03-06T04:26:03;1.80;99.90
45137;DHT22;30894;51.740;19.498;2024-03-06T04:28:30;1.80;99.90
45137;DHT22;30894;51.740;19.498;2024-03-06T04:30:56;1.80;99.90
45137;DHT22;30894;51.740;19.498;2024-03-06T04:33:22;1.90;99.90
45137;DHT22;30894;51.740;19.498;2024-03-06T04:35:49;1.90;99.90
45137;DHT22;30894;51.740;19.498;2024-03-06T04:38:16;1.90;99.90
45137;DHT22;30894;51.740;19.498;2024-03-06T04:40:42;1.90;99.90
45137;DHT22;30894;51.740;19.498;2024-03-06T04:43:08;2.00;99.90
45137;DHT22;30894;51.740;19.498;2024-03-06T04:45:36;2.00;99.90
45137;DHT22;30894;51.740;19.498;2024-03-06T04:48:03;2.00;99.90
45137;DHT22;30894;51.740;19.498;2024-03-06T04:50:29;2.10;99.90
45137;DHT22;30894;51.740;19.498;2024-03-06T04:52:56;2.10;99.90
45137;DHT22;30894;51.740;19.498;2024-03-06T04:55:22;2.10;99.90
45137;DHT22;30894;51.740;19.498;2024-03-06T04:57:48;2.20;99.90
45137;DHT22;30894;51.740;19.498;2024-03-06T05:00:15;2.20;99.90
45137;DHT22;30894;51.740;19.498;2024-03-06T05:02:42;2.20;99.90
45137;DHT22;30894;51.740;19.498;2024-03-06T05:05:11;2.30;99.90
45137;DHT22;30894;51.740;19.498;2024-03-06T05:07:38;2.30;99.90
45137;DHT22;30894;51.740;19.498;2024-03-06T05:10:04;2.30;99.90
45137;DHT22;30894;51.740;19.498;2024-03-06T05:12:34;2.30;99.90
45137;DHT22;30894;51.740;19.498;2024-03-06T05:15:00;2.30;99.90
45137;DHT22;30894;51.740;19.498;2024-03-06T05:17:26;2.40;99.90
45137;DHT22;30894;51.740;19.498;2024-03-06T05:19:55;2.40;99.90
45137;DHT22;30894;51.740;19.498;2024-03-06T05:22:23;2.40;99.90
45137;DHT22;30894;51.740;19.498;2024-03-06T05:24:49;2.40;99.90
45137;DHT22;30894;51.740;19.498;2024-03-06T05:27:16;2.40;99.90
45137;DHT22;30894;51.740;19.498;2024-03-06T05:29:44;2.40;99.90
45137;DHT22;30894;51.740;19.498;2024-03-06T05:32:13;2.50;99.90
45137;DHT22;30894;51.740;19.498;2024-03-06T05:34:39;2.50;99.90
45137;DHT22;30894;51.740;19.498;2024-03-06T05:37:06;2.50;99.90
45137;DHT22;30894;51.740;19.498;2024-03-06T05:39:32;2.50;99.90
45137;DHT22;30894;51.740;19.498;2024-03-06T05:45:45;2.60;99.90
45137;DHT22;30894;51.740;19.498;2024-03-06T05:48:11;2.60;99.90
45137;DHT22;30894;51.740;19.498;2024-03-06T05:50:38;2.60;99.90
45137;DHT22;30894;51.740;19.498;2024-03-06T05:53:04;2.60;99.90
45137;DHT22;30894;51.740;19.498;2024-03-06T05:55:32;2.60;99.90
45137;DHT22;30894;51.740;19.498;2024-03-06T05:57:58;2.70;99.90
45137;DHT22;30894;51.740;19.498;2024-03-06T06:00:25;2.80;99.90
45137;DHT22;30894;51.740;19.498;2024-03-06T06:02:51;2.70;99.90
45137;DHT22;30894;51.740;19.498;2024-03-06T06:05:19;2.80;99.90
45137;DHT22;30894;51.740;19.498;2024-03-06T06:07:48;2.80;99.90
45137;DHT22;30894;51.740;19.498;2024-03-06T06:10:17;2.80;99.90
45137;DHT22;30894;51.740;19.498;2024-03-06T06:12:44;2.80;99.90
45137;DHT22;30894;51.740;19.498;2024-03-06T06:15:10;2.90;99.90
45137;DHT22;30894;51.740;19.498;2024-03-06T06:17:37;2.90;99.90
45137;DHT22;30894;51.740;19.498;2024-03-06T06:20:07;3.00;99.90
45137;DHT22;30894;51.740;19.498;2024-03-06T06:22:39;3.00;99.90
45137;DHT22;30894;51.740;19.498;2024-03-06T06:25:06;3.00;99.90
45137;DHT22;30894;51.740;19.498;2024-03-06T06:27:33;3.10;99.90
45137;DHT22;30894;51.740;19.498;2024-03-06T06:30:01;3.10;99.90
45137;DHT22;30894;51.740;19.498;2024-03-06T06:32:31;3.20;99.90
45137;DHT22;30894;51.740;19.498;2024-03-06T06:34:59;3.20;99.90
45137;DHT22;30894;51.740;19.498;2024-03-06T06:37:25;3.20;99.90
45137;DHT22;30894;51.740;19.498;2024-03-06T06:39:53;3.20;99.90
45137;DHT22;30894;51.740;19.498;2024-03-06T06:42:20;3.20;99.90
45137;DHT22;30894;51.740;19.498;2024-03-06T06:44:48;3.30;99.90
45137;DHT22;30894;51.740;19.498;2024-03-06T06:47:14;3.30;99.90
45137;DHT22;30894;51.740;19.498;2024-03-06T06:49:43;3.20;99.90
45137;DHT22;30894;51.740;19.498;2024-03-06T06:52:14;3.30;99.90
45137;DHT22;30894;51.740;19.498;2024-03-06T06:54:57;3.30;99.90
45137;DHT22;30894;51.740;19.498;2024-03-06T06:57:26;3.30;99.90
45137;DHT22;30894;51.740;19.498;2024-03-06T06:59:57;3.40;99.90
45137;DHT22;30894;51.740;19.498;2024-03-06T07:02:26;3.40;99.90
45137;DHT22;30894;51.740;19.498;2024-03-06T07:05:07;3.40;99.90
45137;DHT22;30894;51.740;19.498;2024-03-06T07:07:38;3.40;99.90
45137;DHT22;30894;51.740;19.498;2024-03-06T07:10:15;3.30;99.90
45137;DHT22;30894;51.740;19.498;2024-03-06T07:12:43;3.30;99.90
45137;DHT22;30894;51.740;19.498;2024-03-06T07:15:11;3.30;99.90
45137;DHT22;30894;51.740;19.498;2024-03-06T07:17:44;3.30;99.90
45137;DHT22;30894;51.740;19.498;2024-03-06T07:20:15;3.30;99.90
45137;DHT22;30894;51.740;19.498;2024-03-06T07:22:43;3.30;99.90
45137;DHT22;30894;51.740;19.498;2024-03-06T07:25:18;3.30;99.90
45137;DHT22;30894;51.740;19.498;2024-03-06T07:27:48;3.30;99.90
45137;DHT22;30894;51.740;19.498;2024-03-06T07:30:16;3.30;99.90
45137;DHT22;30894;51.740;19.498;2024-03-06T07:32:44;3.30;99.90
45137;DHT22;30894;51.740;19.498;2024-03-06T07:35:16;3.40;99.90
45137;DHT22;30894;51.740;19.498;2024-03-06T07:37:47;3.30;99.90
45137;DHT22;30894;51.740;19.498;2024-03-06T07:40:15;3.30;99.90
45137;DHT22;30894;51.740;19.498;2024-03-06T07:42:47;3.40;99.90
45137;DHT22;30894;51.740;19.498;2024-03-06T07:45:18;3.40;99.90
45137;DHT22;30894;51.740;19.498;2024-03-06T07:47:46;3.40;99.90
45137;DHT22;30894;51.740;19.498;2024-03-06T07:50:13;3.40;99.90
45137;DHT22;30894;51.740;19.498;2024-03-06T07:52:45;3.40;99.90
45137;DHT22;30894;51.740;19.498;2024-03-06T07:55:14;3.60;99.90
45137;DHT22;30894;51.740;19.498;2024-03-06T07:57:47;3.40;99.90
45137;DHT22;30894;51.740;19.498;2024-03-06T08:00:20;3.40;99.90
45137;DHT22;30894;51.740;19.498;2024-03-06T08:02:54;3.40;99.90
45137;DHT22;30894;51.740;19.498;2024-03-06T08:05:24;3.50;99.90
45137;DHT22;30894;51.740;19.498;2024-03-06T08:07:51;3.50;99.90
45137;DHT22;30894;51.740;19.498;2024-03-06T08:10:20;3.50;99.90
45137;DHT22;30894;51.740;19.498;2024-03-06T08:12:49;3.60;99.90
45137;DHT22;30894;51.740;19.498;2024-03-06T08:15:22;3.60;99.90
45137;DHT22;30894;51.740;19.498;2024-03-06T08:17:59;3.70;99.90
45137;DHT22;30894;51.740;19.498;2024-03-06T08:20:26;3.70;99.90
45137;DHT22;30894;51.740;19.498;2024-03-06T08:22:56;3.70;99.90
45137;DHT22;30894;51.740;19.498;2024-03-06T08:25:25;3.70;99.90
45137;DHT22;30894;51.740;19.498;2024-03-06T08:27:51;3.80;99.90
45137;DHT22;30894;51.740;19.498;2024-03-06T08:30:25;3.80;99.90
45137;DHT22;30894;51.740;19.498;2024-03-06T08:32:51;3.80;99.90
45137;DHT22;30894;51.740;19.498;2024-03-06T08:35:18;3.80;99.90
45137;DHT22;30894;51.740;19.498;2024-03-06T08:37:51;3.90;99.90
45137;DHT22;30894;51.740;19.498;2024-03-06T08:40:19;4.00;99.90
45137;DHT22;30894;51.740;19.498;2024-03-06T08:42:47;4.00;99.90
45137;DHT22;30894;51.740;19.498;2024-03-06T08:45:17;4.00;99.90
45137;DHT22;30894;51.740;19.498;2024-03-06T08:47:48;4.10;99.90
45137;DHT22;30894;51.740;19.498;2024-03-06T08:50:17;4.10;99.90
45137;DHT22;30894;51.740;19.498;2024-03-06T08:52:50;4.20;99.90
45137;DHT22;30894;51.740;19.498;2024-03-06T08:55:18;4.20;99.90
45137;DHT22;30894;51.740;19.498;2024-03-06T08:57:46;4.30;99.90
45137;DHT22;30894;51.740;19.498;2024-03-06T09:00:22;4.40;99.90
45137;DHT22;30894;51.740;19.498;2024-03-06T09:02:52;4.40;99.90
45137;DHT22;30894;51.740;19.498;2024-03-06T09:05:22;4.40;99.90
45137;DHT22;30894;51.740;19.498;2024-03-06T09:07:56;4.50;99.90
45137;DHT22;30894;51.740;19.498;2024-03-06T09:10:25;4.50;99.90
45137;DHT22;30894;51.740;19.498;2024-03-06T09:12:55;4.60;99.90
45137;DHT22;30894;51.740;19.498;2024-03-06T09:15:26;4.60;99.90
45137;DHT22;30894;51.740;19.498;2024-03-06T09:17:54;4.60;99.90
45137;DHT22;30894;51.740;19.498;2024-03-06T09:20:26;4.70;99.90
45137;DHT22;30894;51.740;19.498;2024-03-06T09:22:56;4.70;99.90
45137;DHT22;30894;51.740;19.498;2024-03-06T09:25:28;4.80;99.90
45137;DHT22;30894;51.740;19.498;2024-03-06T09:27:59;4.80;99.90
45137;DHT22;30894;51.740;19.498;2024-03-06T09:30:33;4.80;99.90
45137;DHT22;30894;51.740;19.498;2024-03-06T09:33:00;4.80;99.90
45137;DHT22;30894;51.740;19.498;2024-03-06T09:35:29;4.90;99.90
45137;DHT22;30894;51.740;19.498;2024-03-06T09:38:15;4.90;99.90
45137;DHT22;30894;51.740;19.498;2024-03-06T09:40:44;5.00;99.90
45137;DHT22;30894;51.740;19.498;2024-03-06T09:43:27;5.10;99.90
45137;DHT22;30894;51.740;19.498;2024-03-06T09:45:55;5.10;99.90
45137;DHT22;30894;51.740;19.498;2024-03-06T09:48:48;5.20;99.90
45137;DHT22;30894;51.740;19.498;2024-03-06T09:51:24;5.30;99.90
45137;DHT22;30894;51.740;19.498;2024-03-06T09:53:55;5.30;99.90
45137;DHT22;30894;51.740;19.498;2024-03-06T09:56:45;5.40;99.90
45137;DHT22;30894;51.740;19.498;2024-03-06T09:59:31;5.50;99.90
45137;DHT22;30894;51.740;19.498;2024-03-06T10:02:31;5.60;99.90
45137;DHT22;30894;51.740;19.498;2024-03-06T10:05:37;5.70;99.90
45137;DHT22;30894;51.740;19.498;2024-03-06T10:08:30;5.90;99.90
45137;DHT22;30894;51.740;19.498;2024-03-06T10:11:40;6.00;99.90
45137;DHT22;30894;51.740;19.498;2024-03-06T10:14:48;6.10;99.90
45137;DHT22;30894;51.740;19.498;2024-03-06T10:17:21;6.20;99.90
45137;DHT22;30894;51.740;19.498;2024-03-06T10:20:21;6.30;99.90
45137;DHT22;30894;51.740;19.498;2024-03-06T10:23:06;6.50;99.90
45137;DHT22;30894;51.740;19.498;2024-03-06T10:25:37;6.60;99.90
45137;DHT22;30894;51.740;19.498;2024-03-06T10:28:09;6.60;99.90
45137;DHT22;30894;51.740;19.498;2024-03-06T10:31:04;6.60;99.90
45137;DHT22;30894;51.740;19.498;2024-03-06T10:33:36;6.60;99.90
45137;DHT22;30894;51.740;19.498;2024-03-06T10:36:14;6.60;99.90
45137;DHT22;30894;51.740;19.498;2024-03-06T10:38:49;6.60;99.90
45137;DHT22;30894;51.740;19.498;2024-03-06T10:41:22;6.60;99.90
45137;DHT22;30894;51.740;19.498;2024-03-06T10:43:56;6.60;99.90
45137;DHT22;30894;51.740;19.498;2024-03-06T10:46:25;6.60;99.90
45137;DHT22;30894;51.740;19.498;2024-03-06T10:48:57;6.60;99.90
45137;DHT22;30894;51.740;19.498;2024-03-06T10:51:26;6.60;99.90
45137;DHT22;30894;51.740;19.498;2024-03-06T10:53:56;6.60;99.90
45137;DHT22;30894;51.740;19.498;2024-03-06T10:56:30;6.60;99.90
45137;DHT22;30894;51.740;19.498;2024-03-06T10:58:58;6.60;99.90
45137;DHT22;30894;51.740;19.498;2024-03-06T11:01:25;6.60;99.90
45137;DHT22;30894;51.740;19.498;2024-03-06T11:03:52;6.50;99.90
45137;DHT22;30894;51.740;19.498;2024-03-06T11:06:19;6.60;99.90
45137;DHT22;30894;51.740;19.498;2024-03-06T11:08:51;6.60;99.90
45137;DHT22;30894;51.740;19.498;2024-03-06T11:11:24;6.70;99.90
45137;DHT22;30894;51.740;19.498;2024-03-06T11:14:08;6.60;99.90
45137;DHT22;30894;51.740;19.498;2024-03-06T11:17:08;6.70;99.90
45137;DHT22;30894;51.740;19.498;2024-03-06T11:20:17;6.60;99.90
45137;DHT22;30894;51.740;19.498;2024-03-06T11:23:03;6.50;99.90
45137;DHT22;30894;51.740;19.498;2024-03-06T11:26:01;6.50;99.90
45137;DHT22;30894;51.740;19.498;2024-03-06T11:28:40;6.60;99.90
45137;DHT22;30894;51.740;19.498;2024-03-06T11:31:29;6.80;99.90
45137;DHT22;30894;51.740;19.498;2024-03-06T11:34:14;7.00;99.90
45137;DHT22;30894;51.740;19.498;2024-03-06T11:37:25;7.10;99.90
45137;DHT22;30894;51.740;19.498;2024-03-06T11:40:10;7.10;99.90
45137;DHT22;30894;51.740;19.498;2024-03-06T11:42:39;7.30;99.90
45137;DHT22;30894;51.740;19.498;2024-03-06T11:45:21;7.50;99.90
45137;DHT22;30894;51.740;19.498;2024-03-06T11:48:02;7.70;99.90
45137;DHT22;30894;51.740;19.498;2024-03-06T11:51:01;7.90;99.90
45137;DHT22;30894;51.740;19.498;2024-03-06T11:53:59;8.20;99.90
45137;DHT22;30894;51.740;19.498;2024-03-06T11:56:30;8.40;99.90
45137;DHT22;30894;51.740;19.498;2024-03-06T11:58:56;8.40;99.90
45137;DHT22;30894;51.740;19.498;2024-03-06T12:01:27;8.40;99.90
45137;DHT22;30894;51.740;19.498;2024-03-06T12:04:03;8.30;99.90
45137;DHT22;30894;51.740;19.498;2024-03-06T12:06:32;8.10;99.90
45137;DHT22;30894;51.740;19.498;2024-03-06T12:09:04;8.10;99.90
45137;DHT22;30894;51.740;19.498;2024-03-06T12:11:57;8.10;99.90
45137;DHT22;30894;51.740;19.498;2024-03-06T12:14:24;8.00;99.90
45137;DHT22;30894;51.740;19.498;2024-03-06T12:16:58;8.00;99.90
45137;DHT22;30894;51.740;19.498;2024-03-06T12:19:27;8.00;99.90
45137;DHT22;30894;51.740;19.498;2024-03-06T12:22:03;7.90;99.90
45137;DHT22;30894;51.740;19.498;2024-03-06T12:24:34;7.80;99.90
45137;DHT22;30894;51.740;19.498;2024-03-06T12:27:23;7.60;99.90
45137;DHT22;30894;51.740;19.498;2024-03-06T12:29:55;7.60;99.90
45137;DHT22;30894;51.740;19.498;2024-03-06T12:32:38;7.50;99.90
45137;DHT22;30894;51.740;19.498;2024-03-06T12:35:11;7.40;99.90
45137;DHT22;30894;51.740;19.498;2024-03-06T12:37:39;7.30;99.90
45137;DHT22;30894;51.740;19.498;2024-03-06T12:40:08;7.30;99.90
45137;DHT22;30894;51.740;19.498;2024-03-06T12:42:42;7.20;99.90
45137;DHT22;30894;51.740;19.498;2024-03-06T12:45:09;7.20;99.90
45137;DHT22;30894;51.740;19.498;2024-03-06T12:47:42;7.10;99.90
45137;DHT22;30894;51.740;19.498;2024-03-06T12:50:09;7.10;99.90
45137;DHT22;30894;51.740;19.498;2024-03-06T12:52:40;7.20;99.90
45137;DHT22;30894;51.740;19.498;2024-03-06T12:55:08;7.20;99.90
45137;DHT22;30894;51.740;19.498;2024-03-06T12:57:34;7.30;99.90
45137;DHT22;30894;51.740;19.498;2024-03-06T13:00:08;7.30;99.90
45137;DHT22;30894;51.740;19.498;2024-03-06T13:02:45;7.30;99.90
45137;DHT22;30894;51.740;19.498;2024-03-06T13:05:13;7.20;99.90
45137;DHT22;30894;51.740;19.498;2024-03-06T13:07:40;7.20;99.90
45137;DHT22;30894;51.740;19.498;2024-03-06T13:10:16;7.20;99.90
45137;DHT22;30894;51.740;19.498;2024-03-06T13:12:43;7.10;99.90
45137;DHT22;30894;51.740;19.498;2024-03-06T13:15:21;7.10;99.90
45137;DHT22;30894;51.740;19.498;2024-03-06T13:17:53;7.10;99.90
45137;DHT22;30894;51.740;19.498;2024-03-06T13:20:30;7.10;99.90
45137;DHT22;30894;51.740;19.498;2024-03-06T13:22:57;7.20;99.90
45137;DHT22;30894;51.740;19.498;2024-03-06T13:25:31;7.20;99.90
45137;DHT22;30894;51.740;19.498;2024-03-06T13:27:58;7.20;99.90
45137;DHT22;30894;51.740;19.498;2024-03-06T13:30:24;7.20;99.90
45137;DHT22;30894;51.740;19.498;2024-03-06T13:33:00;7.20;99.90
45137;DHT22;30894;51.740;19.498;2024-03-06T13:35:29;7.10;99.90
45137;DHT22;30894;51.740;19.498;2024-03-06T13:38:01;7.00;99.90
45137;DHT22;30894;51.740;19.498;2024-03-06T13:40:30;6.90;99.90
45137;DHT22;30894;51.740;19.498;2024-03-06T13:42:57;6.80;99.90
45137;DHT22;30894;51.740;19.498;2024-03-06T13:45:23;6.70;99.90
45137;DHT22;30894;51.740;19.498;2024-03-06T13:47:50;6.60;99.90
45137;DHT22;30894;51.740;19.498;2024-03-06T13:50:18;6.50;99.90
45137;DHT22;30894;51.740;19.498;2024-03-06T13:52:44;6.40;99.90
45137;DHT22;30894;51.740;19.498;2024-03-06T13:55:10;6.40;99.90
45137;DHT22;30894;51.740;19.498;2024-03-06T13:57:40;6.30;99.90
45137;DHT22;30894;51.740;19.498;2024-03-06T14:00:08;6.30;99.90
45137;DHT22;30894;51.740;19.498;2024-03-06T14:02:44;6.30;99.90
45137;DHT22;30894;51.740;19.498;2024-03-06T14:05:14;6.20;99.90
45137;DHT22;30894;51.740;19.498;2024-03-06T14:07:43;6.20;99.90
45137;DHT22;30894;51.740;19.498;2024-03-06T14:10:10;6.10;99.90
45137;DHT22;30894;51.740;19.498;2024-03-06T14:12:37;6.10;99.90
45137;DHT22;30894;51.740;19.498;2024-03-06T14:15:08;6.00;99.90
45137;DHT22;30894;51.740;19.498;2024-03-06T14:17:41;6.00;99.90
45137;DHT22;30894;51.740;19.498;2024-03-06T14:20:08;5.90;99.90
45137;DHT22;30894;51.740;19.498;2024-03-06T14:22:38;5.90;99.90
45137;DHT22;30894;51.740;19.498;2024-03-06T14:25:04;5.80;99.90
45137;DHT22;30894;51.740;19.498;2024-03-06T14:27:31;5.80;99.90
45137;DHT22;30894;51.740;19.498;2024-03-06T14:29:57;5.80;99.90
45137;DHT22;30894;51.740;19.498;2024-03-06T14:32:24;5.70;99.90
45137;DHT22;30894;51.740;19.498;2024-03-06T14:34:51;5.70;99.90
45137;DHT22;30894;51.740;19.498;2024-03-06T14:37:20;5.60;99.90
45137;DHT22;30894;51.740;19.498;2024-03-06T14:39:47;5.60;99.90
45137;DHT22;30894;51.740;19.498;2024-03-06T14:42:16;5.60;99.90
45137;DHT22;30894;51.740;19.498;2024-03-06T14:44:48;5.50;99.90
45137;DHT22;30894;51.740;19.498;2024-03-06T14:47:16;5.50;99.90
45137;DHT22;30894;51.740;19.498;2024-03-06T14:49:44;5.40;99.90
45137;DHT22;30894;51.740;19.498;2024-03-06T14:52:13;5.30;99.90
45137;DHT22;30894;51.740;19.498;2024-03-06T14:54:43;5.20;99.90
45137;DHT22;30894;51.740;19.498;2024-03-06T14:57:14;5.10;99.90
45137;DHT22;30894;51.740;19.498;2024-03-06T14:59:42;5.00;99.90
45137;DHT22;30894;51.740;19.498;2024-03-06T15:02:09;5.00;99.90
45137;DHT22;30894;51.740;19.498;2024-03-06T15:04:41;5.00;99.90
45137;DHT22;30894;51.740;19.498;2024-03-06T15:07:10;5.00;99.90
45137;DHT22;30894;51.740;19.498;2024-03-06T15:09:38;5.10;99.90
45137;DHT22;30894;51.740;19.498;2024-03-06T15:12:09;5.00;99.90
45137;DHT22;30894;51.740;19.498;2024-03-06T15:14:37;5.00;99.90
45137;DHT22;30894;51.740;19.498;2024-03-06T15:17:11;5.10;99.90
45137;DHT22;30894;51.740;19.498;2024-03-06T15:19:46;5.10;99.90
45137;DHT22;30894;51.740;19.498;2024-03-06T15:22:14;5.00;99.90
45137;DHT22;30894;51.740;19.498;2024-03-06T15:24:40;5.00;99.90
45137;DHT22;30894;51.740;19.498;2024-03-06T15:27:11;5.00;99.90
45137;DHT22;30894;51.740;19.498;2024-03-06T15:29:40;5.00;99.90
45137;DHT22;30894;51.740;19.498;2024-03-06T15:32:12;5.00;99.90
45137;DHT22;30894;51.740;19.498;2024-03-06T15:34:41;5.00;99.90
45137;DHT22;30894;51.740;19.498;2024-03-06T15:37:10;4.90;99.90
45137;DHT22;30894;51.740;19.498;2024-03-06T15:40:08;5.00;99.90
45137;DHT22;30894;51.740;19.498;2024-03-06T15:42:37;5.00;99.90
45137;DHT22;30894;51.740;19.498;2024-03-06T15:45:06;4.90;99.90
45137;DHT22;30894;51.740;19.498;2024-03-06T15:47:36;4.90;99.90
45137;DHT22;30894;51.740;19.498;2024-03-06T15:50:07;4.90;99.90
45137;DHT22;30894;51.740;19.498;2024-03-06T15:52:40;4.80;99.90
45137;DHT22;30894;51.740;19.498;2024-03-06T15:55:09;4.90;99.90
45137;DHT22;30894;51.740;19.498;2024-03-06T15:57:37;4.80;99.90
45137;DHT22;30894;51.740;19.498;2024-03-06T16:00:06;4.80;99.90